<?xml version="1.0" encoding="UTF-8" standalone="no" ?>
<gpx xmlns="http://www.topografix.com/GPX/1/1" xmlns:xsi="http://www.w3.org/2001/XMLSchema-instance" xsi:schemaLocation="http://www.topografix.com/GPX/1/1 http://www.topografix.com/GPX/1/1/gpx.xsd" version="1.1" creator="VisuGPX - https://www.visugpx.com">
  <metadata>
    <name>Domératoise 2016</name>
    <desc><![CDATA[Circuit Vélo Tout Terrain 37 kilomètres]]></desc>
  </metadata>
  <trk>
    <name><![CDATA[36.00_Domeratoise 2016]]></name>
    <trkseg>
      <trkpt lat="46.3661" lon="2.57975">
        <ele>223</ele>
        <time>2016-10-03T19:00:45Z</time>
      </trkpt>
      <trkpt lat="46.36583" lon="2.57981">
        <ele>222</ele>
        <time>2016-10-03T19:02:45Z</time>
      </trkpt>
      <trkpt lat="46.36576" lon="2.57902">
        <ele>225</ele>
        <time>2016-10-03T19:04:45Z</time>
      </trkpt>
      <trkpt lat="46.3659" lon="2.5787">
        <ele>225</ele>
        <time>2016-10-03T19:06:45Z</time>
      </trkpt>
      <trkpt lat="46.36636" lon="2.57823">
        <ele>226</ele>
        <time>2016-10-03T19:08:45Z</time>
      </trkpt>
      <trkpt lat="46.36589" lon="2.57655">
        <ele>226</ele>
        <time>2016-10-03T19:10:45Z</time>
      </trkpt>
      <trkpt lat="46.36729" lon="2.57506">
        <ele>226</ele>
        <time>2016-10-03T19:12:45Z</time>
      </trkpt>
      <trkpt lat="46.36712" lon="2.57417">
        <ele>227</ele>
        <time>2016-10-03T19:14:45Z</time>
      </trkpt>
      <trkpt lat="46.36672" lon="2.57297">
        <ele>226</ele>
        <time>2016-10-03T19:16:45Z</time>
      </trkpt>
      <trkpt lat="46.36651" lon="2.57253">
        <ele>227</ele>
        <time>2016-10-03T19:18:45Z</time>
      </trkpt>
      <trkpt lat="46.36596" lon="2.57267">
        <ele>227</ele>
        <time>2016-10-03T19:20:45Z</time>
      </trkpt>
      <trkpt lat="46.36487" lon="2.57317">
        <ele>227</ele>
        <time>2016-10-03T19:22:45Z</time>
      </trkpt>
      <trkpt lat="46.36429" lon="2.57287">
        <ele>228</ele>
        <time>2016-10-03T19:24:45Z</time>
      </trkpt>
      <trkpt lat="46.36396" lon="2.57257">
        <ele>228</ele>
        <time>2016-10-03T19:26:45Z</time>
      </trkpt>
      <trkpt lat="46.36344" lon="2.57273">
        <ele>229</ele>
        <time>2016-10-03T19:28:45Z</time>
      </trkpt>
      <trkpt lat="46.363" lon="2.57253">
        <ele>229</ele>
        <time>2016-10-03T19:30:45Z</time>
      </trkpt>
      <trkpt lat="46.36324" lon="2.57103">
        <ele>229</ele>
        <time>2016-10-03T19:32:45Z</time>
      </trkpt>
      <trkpt lat="46.36222" lon="2.571">
        <ele>229</ele>
        <time>2016-10-03T19:34:45Z</time>
      </trkpt>
      <trkpt lat="46.36238" lon="2.57025">
        <ele>231</ele>
        <time>2016-10-03T19:36:45Z</time>
      </trkpt>
      <trkpt lat="46.36225" lon="2.5695">
        <ele>232</ele>
        <time>2016-10-03T19:38:45Z</time>
      </trkpt>
      <trkpt lat="46.36204" lon="2.56787">
        <ele>231</ele>
        <time>2016-10-03T19:40:45Z</time>
      </trkpt>
      <trkpt lat="46.362" lon="2.56519">
        <ele>235</ele>
        <time>2016-10-03T19:42:45Z</time>
      </trkpt>
      <trkpt lat="46.36208" lon="2.56387">
        <ele>235</ele>
        <time>2016-10-03T19:44:45Z</time>
      </trkpt>
      <trkpt lat="46.36117" lon="2.56314">
        <ele>235</ele>
        <time>2016-10-03T19:46:45Z</time>
      </trkpt>
      <trkpt lat="46.36001" lon="2.56198">
        <ele>238</ele>
        <time>2016-10-03T19:48:45Z</time>
      </trkpt>
      <trkpt lat="46.35902" lon="2.56071">
        <ele>243</ele>
        <time>2016-10-03T19:50:45Z</time>
      </trkpt>
      <trkpt lat="46.35955" lon="2.55959">
        <ele>239</ele>
        <time>2016-10-03T19:52:45Z</time>
      </trkpt>
      <trkpt lat="46.36016" lon="2.55832">
        <ele>233</ele>
        <time>2016-10-03T19:54:45Z</time>
      </trkpt>
      <trkpt lat="46.36054" lon="2.55637">
        <ele>228</ele>
        <time>2016-10-03T19:56:45Z</time>
      </trkpt>
      <trkpt lat="46.36086" lon="2.55479">
        <ele>227</ele>
        <time>2016-10-03T19:58:45Z</time>
      </trkpt>
      <trkpt lat="46.36113" lon="2.55329">
        <ele>228</ele>
        <time>2016-10-03T20:00:45Z</time>
      </trkpt>
      <trkpt lat="46.36131" lon="2.55226">
        <ele>225</ele>
        <time>2016-10-03T20:02:45Z</time>
      </trkpt>
      <trkpt lat="46.36175" lon="2.55127">
        <ele>224</ele>
        <time>2016-10-03T20:04:45Z</time>
      </trkpt>
      <trkpt lat="46.3622" lon="2.55053">
        <ele>222</ele>
        <time>2016-10-03T20:06:45Z</time>
      </trkpt>
      <trkpt lat="46.36263" lon="2.54898">
        <ele>222</ele>
        <time>2016-10-03T20:08:45Z</time>
      </trkpt>
      <trkpt lat="46.3634" lon="2.54764">
        <ele>223</ele>
        <time>2016-10-03T20:10:45Z</time>
      </trkpt>
      <trkpt lat="46.36377" lon="2.54667">
        <ele>223</ele>
        <time>2016-10-03T20:12:45Z</time>
      </trkpt>
      <trkpt lat="46.36421" lon="2.54635">
        <ele>222</ele>
        <time>2016-10-03T20:14:45Z</time>
      </trkpt>
      <trkpt lat="46.36458" lon="2.54583">
        <ele>223</ele>
        <time>2016-10-03T20:16:45Z</time>
      </trkpt>
      <trkpt lat="46.36503" lon="2.54469">
        <ele>223</ele>
        <time>2016-10-03T20:18:45Z</time>
      </trkpt>
      <trkpt lat="46.3656" lon="2.54369">
        <ele>226</ele>
        <time>2016-10-03T20:20:45Z</time>
      </trkpt>
      <trkpt lat="46.36599" lon="2.54305">
        <ele>228</ele>
        <time>2016-10-03T20:22:45Z</time>
      </trkpt>
      <trkpt lat="46.36671" lon="2.54165">
        <ele>229</ele>
        <time>2016-10-03T20:24:45Z</time>
      </trkpt>
      <trkpt lat="46.36737" lon="2.54054">
        <ele>232</ele>
        <time>2016-10-03T20:26:45Z</time>
      </trkpt>
      <trkpt lat="46.36808" lon="2.53941">
        <ele>233</ele>
        <time>2016-10-03T20:28:45Z</time>
      </trkpt>
      <trkpt lat="46.36838" lon="2.539">
        <ele>234</ele>
        <time>2016-10-03T20:30:45Z</time>
      </trkpt>
      <trkpt lat="46.36907" lon="2.53825">
        <ele>232</ele>
        <time>2016-10-03T20:32:45Z</time>
      </trkpt>
      <trkpt lat="46.37028" lon="2.5374">
        <ele>221</ele>
        <time>2016-10-03T20:34:45Z</time>
      </trkpt>
      <trkpt lat="46.37133" lon="2.53626">
        <ele>216</ele>
        <time>2016-10-03T20:36:45Z</time>
      </trkpt>
      <trkpt lat="46.37171" lon="2.53557">
        <ele>217</ele>
        <time>2016-10-03T20:38:45Z</time>
      </trkpt>
      <trkpt lat="46.37259" lon="2.53437">
        <ele>216</ele>
        <time>2016-10-03T20:40:45Z</time>
      </trkpt>
      <trkpt lat="46.37303" lon="2.53367">
        <ele>217</ele>
        <time>2016-10-03T20:42:45Z</time>
      </trkpt>
      <trkpt lat="46.37347" lon="2.53303">
        <ele>218</ele>
        <time>2016-10-03T20:44:45Z</time>
      </trkpt>
      <trkpt lat="46.37377" lon="2.53253">
        <ele>221</ele>
        <time>2016-10-03T20:46:45Z</time>
      </trkpt>
      <trkpt lat="46.374" lon="2.53138">
        <ele>224</ele>
        <time>2016-10-03T20:48:45Z</time>
      </trkpt>
      <trkpt lat="46.37461" lon="2.52901">
        <ele>228</ele>
        <time>2016-10-03T20:50:45Z</time>
      </trkpt>
      <trkpt lat="46.37498" lon="2.52774">
        <ele>230</ele>
        <time>2016-10-03T20:52:45Z</time>
      </trkpt>
      <trkpt lat="46.37599" lon="2.52666">
        <ele>227</ele>
        <time>2016-10-03T20:54:45Z</time>
      </trkpt>
      <trkpt lat="46.37721" lon="2.52586">
        <ele>222</ele>
        <time>2016-10-03T20:56:45Z</time>
      </trkpt>
      <trkpt lat="46.37802" lon="2.5254">
        <ele>221</ele>
        <time>2016-10-03T20:58:45Z</time>
      </trkpt>
      <trkpt lat="46.37899" lon="2.52419">
        <ele>226</ele>
        <time>2016-10-03T21:00:45Z</time>
      </trkpt>
      <trkpt lat="46.37958" lon="2.52362">
        <ele>227</ele>
        <time>2016-10-03T21:02:45Z</time>
      </trkpt>
      <trkpt lat="46.38034" lon="2.52329">
        <ele>226</ele>
        <time>2016-10-03T21:04:45Z</time>
      </trkpt>
      <trkpt lat="46.38184" lon="2.52309">
        <ele>224</ele>
        <time>2016-10-03T21:06:45Z</time>
      </trkpt>
      <trkpt lat="46.383" lon="2.52236">
        <ele>218</ele>
        <time>2016-10-03T21:08:45Z</time>
      </trkpt>
      <trkpt lat="46.38399" lon="2.52148">
        <ele>213</ele>
        <time>2016-10-03T21:10:45Z</time>
      </trkpt>
      <trkpt lat="46.38475" lon="2.52154">
        <ele>211</ele>
        <time>2016-10-03T21:12:45Z</time>
      </trkpt>
      <trkpt lat="46.38605" lon="2.52226">
        <ele>213</ele>
        <time>2016-10-03T21:14:45Z</time>
      </trkpt>
      <trkpt lat="46.38732" lon="2.52302">
        <ele>213</ele>
        <time>2016-10-03T21:16:45Z</time>
      </trkpt>
      <trkpt lat="46.38811" lon="2.52255">
        <ele>213</ele>
        <time>2016-10-03T21:18:45Z</time>
      </trkpt>
      <trkpt lat="46.38866" lon="2.52203">
        <ele>215</ele>
        <time>2016-10-03T21:20:45Z</time>
      </trkpt>
      <trkpt lat="46.38908" lon="2.52184">
        <ele>216</ele>
        <time>2016-10-03T21:22:45Z</time>
      </trkpt>
      <trkpt lat="46.39041" lon="2.52255">
        <ele>224</ele>
        <time>2016-10-03T21:24:45Z</time>
      </trkpt>
      <trkpt lat="46.39119" lon="2.52264">
        <ele>226</ele>
        <time>2016-10-03T21:26:45Z</time>
      </trkpt>
      <trkpt lat="46.39221" lon="2.52328">
        <ele>221</ele>
        <time>2016-10-03T21:28:45Z</time>
      </trkpt>
      <trkpt lat="46.39378" lon="2.52316">
        <ele>218</ele>
        <time>2016-10-03T21:30:45Z</time>
      </trkpt>
      <trkpt lat="46.39499" lon="2.52324">
        <ele>220</ele>
        <time>2016-10-03T21:32:45Z</time>
      </trkpt>
      <trkpt lat="46.39546" lon="2.52318">
        <ele>222</ele>
        <time>2016-10-03T21:34:45Z</time>
      </trkpt>
      <trkpt lat="46.39655" lon="2.52254">
        <ele>224</ele>
        <time>2016-10-03T21:36:45Z</time>
      </trkpt>
      <trkpt lat="46.39706" lon="2.52246">
        <ele>223</ele>
        <time>2016-10-03T21:38:45Z</time>
      </trkpt>
      <trkpt lat="46.39772" lon="2.52219">
        <ele>222</ele>
        <time>2016-10-03T21:40:45Z</time>
      </trkpt>
      <trkpt lat="46.39842" lon="2.5218">
        <ele>222</ele>
        <time>2016-10-03T21:42:45Z</time>
      </trkpt>
      <trkpt lat="46.39933" lon="2.52085">
        <ele>226</ele>
        <time>2016-10-03T21:44:45Z</time>
      </trkpt>
      <trkpt lat="46.39991" lon="2.52003">
        <ele>230</ele>
        <time>2016-10-03T21:46:45Z</time>
      </trkpt>
      <trkpt lat="46.40042" lon="2.51945">
        <ele>234</ele>
        <time>2016-10-03T21:48:45Z</time>
      </trkpt>
      <trkpt lat="46.40062" lon="2.51885">
        <ele>234</ele>
        <time>2016-10-03T21:50:45Z</time>
      </trkpt>
      <trkpt lat="46.4019" lon="2.51791">
        <ele>239</ele>
        <time>2016-10-03T21:52:45Z</time>
      </trkpt>
      <trkpt lat="46.40323" lon="2.51727">
        <ele>240</ele>
        <time>2016-10-03T21:54:45Z</time>
      </trkpt>
      <trkpt lat="46.40467" lon="2.51664">
        <ele>242</ele>
        <time>2016-10-03T21:56:45Z</time>
      </trkpt>
      <trkpt lat="46.40506" lon="2.51632">
        <ele>242</ele>
        <time>2016-10-03T21:58:45Z</time>
      </trkpt>
      <trkpt lat="46.40646" lon="2.51596">
        <ele>239</ele>
        <time>2016-10-03T22:00:45Z</time>
      </trkpt>
      <trkpt lat="46.4081" lon="2.51596">
        <ele>239</ele>
        <time>2016-10-03T22:02:45Z</time>
      </trkpt>
      <trkpt lat="46.40967" lon="2.51609">
        <ele>241</ele>
        <time>2016-10-03T22:04:45Z</time>
      </trkpt>
      <trkpt lat="46.41076" lon="2.51608">
        <ele>241</ele>
        <time>2016-10-03T22:06:45Z</time>
      </trkpt>
      <trkpt lat="46.41243" lon="2.51614">
        <ele>244</ele>
        <time>2016-10-03T22:08:45Z</time>
      </trkpt>
      <trkpt lat="46.41293" lon="2.51605">
        <ele>244</ele>
        <time>2016-10-03T22:10:45Z</time>
      </trkpt>
      <trkpt lat="46.41327" lon="2.51512">
        <ele>247</ele>
        <time>2016-10-03T22:12:45Z</time>
      </trkpt>
      <trkpt lat="46.41358" lon="2.51449">
        <ele>247</ele>
        <time>2016-10-03T22:14:45Z</time>
      </trkpt>
      <trkpt lat="46.41414" lon="2.51306">
        <ele>247</ele>
        <time>2016-10-03T22:16:45Z</time>
      </trkpt>
      <trkpt lat="46.41483" lon="2.51145">
        <ele>245</ele>
        <time>2016-10-03T22:18:45Z</time>
      </trkpt>
      <trkpt lat="46.41544" lon="2.50972">
        <ele>244</ele>
        <time>2016-10-03T22:20:45Z</time>
      </trkpt>
      <trkpt lat="46.41597" lon="2.50859">
        <ele>245</ele>
        <time>2016-10-03T22:22:45Z</time>
      </trkpt>
      <trkpt lat="46.41673" lon="2.50695">
        <ele>245</ele>
        <time>2016-10-03T22:24:45Z</time>
      </trkpt>
      <trkpt lat="46.41753" lon="2.50613">
        <ele>245</ele>
        <time>2016-10-03T22:26:45Z</time>
      </trkpt>
      <trkpt lat="46.41878" lon="2.50768">
        <ele>237</ele>
        <time>2016-10-03T22:28:45Z</time>
      </trkpt>
      <trkpt lat="46.41891" lon="2.5071">
        <ele>237</ele>
        <time>2016-10-03T22:30:45Z</time>
      </trkpt>
      <trkpt lat="46.41913" lon="2.50598">
        <ele>235</ele>
        <time>2016-10-03T22:32:45Z</time>
      </trkpt>
      <trkpt lat="46.41828" lon="2.50569">
        <ele>243</ele>
        <time>2016-10-03T22:34:45Z</time>
      </trkpt>
      <trkpt lat="46.41534" lon="2.49977">
        <ele>268</ele>
        <time>2016-10-03T22:36:45Z</time>
      </trkpt>
      <trkpt lat="46.41443" lon="2.49804">
        <ele>273</ele>
        <time>2016-10-03T22:38:45Z</time>
      </trkpt>
      <trkpt lat="46.41385" lon="2.4965">
        <ele>278</ele>
        <time>2016-10-03T22:40:45Z</time>
      </trkpt>
      <trkpt lat="46.41346" lon="2.49541">
        <ele>280</ele>
        <time>2016-10-03T22:42:45Z</time>
      </trkpt>
      <trkpt lat="46.41339" lon="2.49497">
        <ele>281</ele>
        <time>2016-10-03T22:44:45Z</time>
      </trkpt>
      <trkpt lat="46.41425" lon="2.49439">
        <ele>279</ele>
        <time>2016-10-03T22:46:45Z</time>
      </trkpt>
      <trkpt lat="46.41448" lon="2.49409">
        <ele>279</ele>
        <time>2016-10-03T22:48:45Z</time>
      </trkpt>
      <trkpt lat="46.41271" lon="2.48805">
        <ele>308</ele>
        <time>2016-10-03T22:50:45Z</time>
      </trkpt>
      <trkpt lat="46.41259" lon="2.48752">
        <ele>309</ele>
        <time>2016-10-03T22:52:45Z</time>
      </trkpt>
      <trkpt lat="46.41295" lon="2.48705">
        <ele>309</ele>
        <time>2016-10-03T22:54:45Z</time>
      </trkpt>
      <trkpt lat="46.41324" lon="2.48657">
        <ele>310</ele>
        <time>2016-10-03T22:56:45Z</time>
      </trkpt>
      <trkpt lat="46.41337" lon="2.48593">
        <ele>312</ele>
        <time>2016-10-03T22:58:45Z</time>
      </trkpt>
      <trkpt lat="46.41297" lon="2.48509">
        <ele>315</ele>
        <time>2016-10-03T23:00:45Z</time>
      </trkpt>
      <trkpt lat="46.41234" lon="2.48384">
        <ele>317</ele>
        <time>2016-10-03T23:02:45Z</time>
      </trkpt>
      <trkpt lat="46.41201" lon="2.48343">
        <ele>318</ele>
        <time>2016-10-03T23:04:45Z</time>
      </trkpt>
      <trkpt lat="46.41137" lon="2.48343">
        <ele>319</ele>
        <time>2016-10-03T23:06:45Z</time>
      </trkpt>
      <trkpt lat="46.4109" lon="2.48286">
        <ele>320</ele>
        <time>2016-10-03T23:08:45Z</time>
      </trkpt>
      <trkpt lat="46.41057" lon="2.48175">
        <ele>322</ele>
        <time>2016-10-03T23:10:45Z</time>
      </trkpt>
      <trkpt lat="46.41029" lon="2.47936">
        <ele>324</ele>
        <time>2016-10-03T23:12:45Z</time>
      </trkpt>
      <trkpt lat="46.41018" lon="2.47836">
        <ele>323</ele>
        <time>2016-10-03T23:14:45Z</time>
      </trkpt>
      <trkpt lat="46.40973" lon="2.47759">
        <ele>325</ele>
        <time>2016-10-03T23:16:45Z</time>
      </trkpt>
      <trkpt lat="46.40906" lon="2.47573">
        <ele>323</ele>
        <time>2016-10-03T23:18:45Z</time>
      </trkpt>
      <trkpt lat="46.40853" lon="2.4733">
        <ele>320</ele>
        <time>2016-10-03T23:20:45Z</time>
      </trkpt>
      <trkpt lat="46.40756" lon="2.46901">
        <ele>313</ele>
        <time>2016-10-03T23:22:45Z</time>
      </trkpt>
      <trkpt lat="46.40749" lon="2.46851">
        <ele>311</ele>
        <time>2016-10-03T23:24:45Z</time>
      </trkpt>
      <trkpt lat="46.40711" lon="2.46833">
        <ele>310</ele>
        <time>2016-10-03T23:26:45Z</time>
      </trkpt>
      <trkpt lat="46.40661" lon="2.46831">
        <ele>310</ele>
        <time>2016-10-03T23:28:45Z</time>
      </trkpt>
      <trkpt lat="46.40682" lon="2.46803">
        <ele>310</ele>
        <time>2016-10-03T23:30:45Z</time>
      </trkpt>
      <trkpt lat="46.40702" lon="2.46769">
        <ele>309</ele>
        <time>2016-10-03T23:32:45Z</time>
      </trkpt>
      <trkpt lat="46.40742" lon="2.4669">
        <ele>305</ele>
        <time>2016-10-03T23:34:45Z</time>
      </trkpt>
      <trkpt lat="46.40771" lon="2.46613">
        <ele>302</ele>
        <time>2016-10-03T23:36:45Z</time>
      </trkpt>
      <trkpt lat="46.4085" lon="2.46568">
        <ele>290</ele>
        <time>2016-10-03T23:38:45Z</time>
      </trkpt>
      <trkpt lat="46.40893" lon="2.46545">
        <ele>283</ele>
        <time>2016-10-03T23:40:45Z</time>
      </trkpt>
      <trkpt lat="46.40898" lon="2.46491">
        <ele>281</ele>
        <time>2016-10-03T23:42:45Z</time>
      </trkpt>
      <trkpt lat="46.40924" lon="2.46418">
        <ele>283</ele>
        <time>2016-10-03T23:44:45Z</time>
      </trkpt>
      <trkpt lat="46.40926" lon="2.46328">
        <ele>290</ele>
        <time>2016-10-03T23:46:45Z</time>
      </trkpt>
      <trkpt lat="46.40899" lon="2.46261">
        <ele>293</ele>
        <time>2016-10-03T23:48:45Z</time>
      </trkpt>
      <trkpt lat="46.40873" lon="2.46171">
        <ele>301</ele>
        <time>2016-10-03T23:50:45Z</time>
      </trkpt>
      <trkpt lat="46.40872" lon="2.46126">
        <ele>305</ele>
        <time>2016-10-03T23:52:45Z</time>
      </trkpt>
      <trkpt lat="46.40886" lon="2.45989">
        <ele>313</ele>
        <time>2016-10-03T23:54:45Z</time>
      </trkpt>
      <trkpt lat="46.40891" lon="2.45873">
        <ele>317</ele>
        <time>2016-10-03T23:56:45Z</time>
      </trkpt>
      <trkpt lat="46.4091" lon="2.45706">
        <ele>321</ele>
        <time>2016-10-03T23:58:45Z</time>
      </trkpt>
      <trkpt lat="46.4092" lon="2.45606">
        <ele>323</ele>
        <time>2016-10-04T00:00:45Z</time>
      </trkpt>
      <trkpt lat="46.40931" lon="2.45531">
        <ele>326</ele>
        <time>2016-10-04T00:02:45Z</time>
      </trkpt>
      <trkpt lat="46.40958" lon="2.45488">
        <ele>329</ele>
        <time>2016-10-04T00:04:45Z</time>
      </trkpt>
      <trkpt lat="46.4101" lon="2.45445">
        <ele>333</ele>
        <time>2016-10-04T00:06:45Z</time>
      </trkpt>
      <trkpt lat="46.41023" lon="2.45351">
        <ele>334</ele>
        <time>2016-10-04T00:08:45Z</time>
      </trkpt>
      <trkpt lat="46.41016" lon="2.45299">
        <ele>334</ele>
        <time>2016-10-04T00:10:45Z</time>
      </trkpt>
      <trkpt lat="46.4102" lon="2.45243">
        <ele>334</ele>
        <time>2016-10-04T00:12:45Z</time>
      </trkpt>
      <trkpt lat="46.40985" lon="2.45154">
        <ele>334</ele>
        <time>2016-10-04T00:14:45Z</time>
      </trkpt>
      <trkpt lat="46.40952" lon="2.44993">
        <ele>336</ele>
        <time>2016-10-04T00:16:45Z</time>
      </trkpt>
      <trkpt lat="46.40874" lon="2.4505">
        <ele>332</ele>
        <time>2016-10-04T00:18:45Z</time>
      </trkpt>
      <trkpt lat="46.40794" lon="2.45053">
        <ele>329</ele>
        <time>2016-10-04T00:20:45Z</time>
      </trkpt>
      <trkpt lat="46.40704" lon="2.45078">
        <ele>326</ele>
        <time>2016-10-04T00:22:45Z</time>
      </trkpt>
      <trkpt lat="46.40664" lon="2.45119">
        <ele>324</ele>
        <time>2016-10-04T00:24:45Z</time>
      </trkpt>
      <trkpt lat="46.40607" lon="2.4511">
        <ele>321</ele>
        <time>2016-10-04T00:26:45Z</time>
      </trkpt>
      <trkpt lat="46.40559" lon="2.45153">
        <ele>316</ele>
        <time>2016-10-04T00:28:45Z</time>
      </trkpt>
      <trkpt lat="46.40534" lon="2.45267">
        <ele>310</ele>
        <time>2016-10-04T00:30:45Z</time>
      </trkpt>
      <trkpt lat="46.40519" lon="2.45235">
        <ele>309</ele>
        <time>2016-10-04T00:32:45Z</time>
      </trkpt>
      <trkpt lat="46.40506" lon="2.45198">
        <ele>308</ele>
        <time>2016-10-04T00:34:45Z</time>
      </trkpt>
      <trkpt lat="46.40455" lon="2.45223">
        <ele>305</ele>
        <time>2016-10-04T00:36:45Z</time>
      </trkpt>
      <trkpt lat="46.40417" lon="2.45183">
        <ele>304</ele>
        <time>2016-10-04T00:38:45Z</time>
      </trkpt>
      <trkpt lat="46.40402" lon="2.45226">
        <ele>306</ele>
        <time>2016-10-04T00:40:45Z</time>
      </trkpt>
      <trkpt lat="46.40347" lon="2.45242">
        <ele>311</ele>
        <time>2016-10-04T00:42:45Z</time>
      </trkpt>
      <trkpt lat="46.40263" lon="2.45208">
        <ele>321</ele>
        <time>2016-10-04T00:44:45Z</time>
      </trkpt>
      <trkpt lat="46.40168" lon="2.45262">
        <ele>333</ele>
        <time>2016-10-04T00:46:45Z</time>
      </trkpt>
      <trkpt lat="46.40117" lon="2.45311">
        <ele>336</ele>
        <time>2016-10-04T00:48:45Z</time>
      </trkpt>
      <trkpt lat="46.40039" lon="2.4532">
        <ele>339</ele>
        <time>2016-10-04T00:50:45Z</time>
      </trkpt>
      <trkpt lat="46.39986" lon="2.45382">
        <ele>341</ele>
        <time>2016-10-04T00:52:45Z</time>
      </trkpt>
      <trkpt lat="46.39976" lon="2.45337">
        <ele>341</ele>
        <time>2016-10-04T00:54:45Z</time>
      </trkpt>
      <trkpt lat="46.39947" lon="2.45305">
        <ele>343</ele>
        <time>2016-10-04T00:56:45Z</time>
      </trkpt>
      <trkpt lat="46.39858" lon="2.45311">
        <ele>346</ele>
        <time>2016-10-04T00:58:45Z</time>
      </trkpt>
      <trkpt lat="46.39804" lon="2.45276">
        <ele>348</ele>
        <time>2016-10-04T01:00:45Z</time>
      </trkpt>
      <trkpt lat="46.39662" lon="2.45192">
        <ele>352</ele>
        <time>2016-10-04T01:02:45Z</time>
      </trkpt>
      <trkpt lat="46.39666" lon="2.45143">
        <ele>352</ele>
        <time>2016-10-04T01:04:45Z</time>
      </trkpt>
      <trkpt lat="46.39645" lon="2.45056">
        <ele>354</ele>
        <time>2016-10-04T01:06:45Z</time>
      </trkpt>
      <trkpt lat="46.39498" lon="2.4527">
        <ele>355</ele>
        <time>2016-10-04T01:08:45Z</time>
      </trkpt>
      <trkpt lat="46.39105" lon="2.44681">
        <ele>362</ele>
        <time>2016-10-04T01:10:45Z</time>
      </trkpt>
      <trkpt lat="46.38934" lon="2.44912">
        <ele>365</ele>
        <time>2016-10-04T01:12:45Z</time>
      </trkpt>
      <trkpt lat="46.38866" lon="2.45001">
        <ele>367</ele>
        <time>2016-10-04T01:14:45Z</time>
      </trkpt>
      <trkpt lat="46.38826" lon="2.44981">
        <ele>369</ele>
        <time>2016-10-04T01:16:45Z</time>
      </trkpt>
      <trkpt lat="46.3861" lon="2.44993">
        <ele>380</ele>
        <time>2016-10-04T01:18:45Z</time>
      </trkpt>
      <trkpt lat="46.38345" lon="2.45085">
        <ele>371</ele>
        <time>2016-10-04T01:20:45Z</time>
      </trkpt>
      <trkpt lat="46.38268" lon="2.45108">
        <ele>369</ele>
        <time>2016-10-04T01:22:45Z</time>
      </trkpt>
      <trkpt lat="46.38204" lon="2.45205">
        <ele>365</ele>
        <time>2016-10-04T01:24:45Z</time>
      </trkpt>
      <trkpt lat="46.38138" lon="2.45238">
        <ele>365</ele>
        <time>2016-10-04T01:26:45Z</time>
      </trkpt>
      <trkpt lat="46.38072" lon="2.45185">
        <ele>366</ele>
        <time>2016-10-04T01:28:45Z</time>
      </trkpt>
      <trkpt lat="46.38049" lon="2.45154">
        <ele>366</ele>
        <time>2016-10-04T01:30:45Z</time>
      </trkpt>
      <trkpt lat="46.38044" lon="2.45015">
        <ele>367</ele>
        <time>2016-10-04T01:32:45Z</time>
      </trkpt>
      <trkpt lat="46.37956" lon="2.45015">
        <ele>365</ele>
        <time>2016-10-04T01:34:45Z</time>
      </trkpt>
      <trkpt lat="46.37901" lon="2.45079">
        <ele>361</ele>
        <time>2016-10-04T01:36:45Z</time>
      </trkpt>
      <trkpt lat="46.37825" lon="2.4516">
        <ele>351</ele>
        <time>2016-10-04T01:38:45Z</time>
      </trkpt>
      <trkpt lat="46.37761" lon="2.45201">
        <ele>344</ele>
        <time>2016-10-04T01:40:45Z</time>
      </trkpt>
      <trkpt lat="46.3776" lon="2.45312">
        <ele>339</ele>
        <time>2016-10-04T01:42:45Z</time>
      </trkpt>
      <trkpt lat="46.37753" lon="2.45401">
        <ele>336</ele>
        <time>2016-10-04T01:44:45Z</time>
      </trkpt>
      <trkpt lat="46.37777" lon="2.45458">
        <ele>336</ele>
        <time>2016-10-04T01:46:45Z</time>
      </trkpt>
      <trkpt lat="46.37817" lon="2.45526">
        <ele>335</ele>
        <time>2016-10-04T01:48:45Z</time>
      </trkpt>
      <trkpt lat="46.37834" lon="2.4561">
        <ele>331</ele>
        <time>2016-10-04T01:50:45Z</time>
      </trkpt>
      <trkpt lat="46.37797" lon="2.45677">
        <ele>327</ele>
        <time>2016-10-04T01:52:45Z</time>
      </trkpt>
      <trkpt lat="46.37774" lon="2.45755">
        <ele>325</ele>
        <time>2016-10-04T01:54:45Z</time>
      </trkpt>
      <trkpt lat="46.37793" lon="2.45855">
        <ele>316</ele>
        <time>2016-10-04T01:56:45Z</time>
      </trkpt>
      <trkpt lat="46.37756" lon="2.45934">
        <ele>311</ele>
        <time>2016-10-04T01:58:45Z</time>
      </trkpt>
      <trkpt lat="46.37722" lon="2.4602">
        <ele>302</ele>
        <time>2016-10-04T02:00:45Z</time>
      </trkpt>
      <trkpt lat="46.37684" lon="2.46068">
        <ele>299</ele>
        <time>2016-10-04T02:02:45Z</time>
      </trkpt>
      <trkpt lat="46.37673" lon="2.46133">
        <ele>298</ele>
        <time>2016-10-04T02:04:45Z</time>
      </trkpt>
      <trkpt lat="46.37717" lon="2.46157">
        <ele>300</ele>
        <time>2016-10-04T02:06:45Z</time>
      </trkpt>
      <trkpt lat="46.37722" lon="2.46193">
        <ele>299</ele>
        <time>2016-10-04T02:08:45Z</time>
      </trkpt>
      <trkpt lat="46.37805" lon="2.46238">
        <ele>308</ele>
        <time>2016-10-04T02:10:45Z</time>
      </trkpt>
      <trkpt lat="46.37834" lon="2.46329">
        <ele>303</ele>
        <time>2016-10-04T02:12:45Z</time>
      </trkpt>
      <trkpt lat="46.3784" lon="2.46434">
        <ele>300</ele>
        <time>2016-10-04T02:14:45Z</time>
      </trkpt>
      <trkpt lat="46.37829" lon="2.46486">
        <ele>298</ele>
        <time>2016-10-04T02:16:45Z</time>
      </trkpt>
      <trkpt lat="46.37861" lon="2.46536">
        <ele>302</ele>
        <time>2016-10-04T02:18:45Z</time>
      </trkpt>
      <trkpt lat="46.37895" lon="2.46563">
        <ele>307</ele>
        <time>2016-10-04T02:20:45Z</time>
      </trkpt>
      <trkpt lat="46.37918" lon="2.4667">
        <ele>306</ele>
        <time>2016-10-04T02:22:45Z</time>
      </trkpt>
      <trkpt lat="46.37906" lon="2.46726">
        <ele>298</ele>
        <time>2016-10-04T02:24:45Z</time>
      </trkpt>
      <trkpt lat="46.37932" lon="2.46729">
        <ele>301</ele>
        <time>2016-10-04T02:26:45Z</time>
      </trkpt>
      <trkpt lat="46.37967" lon="2.46769">
        <ele>304</ele>
        <time>2016-10-04T02:28:45Z</time>
      </trkpt>
      <trkpt lat="46.3795" lon="2.46817">
        <ele>300</ele>
        <time>2016-10-04T02:30:45Z</time>
      </trkpt>
      <trkpt lat="46.37972" lon="2.46869">
        <ele>305</ele>
        <time>2016-10-04T02:32:45Z</time>
      </trkpt>
      <trkpt lat="46.37972" lon="2.46869">
        <ele>305</ele>
        <time>2016-10-04T02:34:45Z</time>
      </trkpt>
      <trkpt lat="46.37958" lon="2.46899">
        <ele>304</ele>
        <time>2016-10-04T02:36:45Z</time>
      </trkpt>
      <trkpt lat="46.37914" lon="2.46912">
        <ele>297</ele>
        <time>2016-10-04T02:38:45Z</time>
      </trkpt>
      <trkpt lat="46.3789" lon="2.46921">
        <ele>296</ele>
        <time>2016-10-04T02:40:45Z</time>
      </trkpt>
      <trkpt lat="46.37869" lon="2.46901">
        <ele>293</ele>
        <time>2016-10-04T02:42:45Z</time>
      </trkpt>
      <trkpt lat="46.37824" lon="2.46983">
        <ele>293</ele>
        <time>2016-10-04T02:44:45Z</time>
      </trkpt>
      <trkpt lat="46.37813" lon="2.47026">
        <ele>295</ele>
        <time>2016-10-04T02:46:45Z</time>
      </trkpt>
      <trkpt lat="46.37803" lon="2.47078">
        <ele>295</ele>
        <time>2016-10-04T02:48:45Z</time>
      </trkpt>
      <trkpt lat="46.37792" lon="2.47121">
        <ele>295</ele>
        <time>2016-10-04T02:50:45Z</time>
      </trkpt>
      <trkpt lat="46.37763" lon="2.47141">
        <ele>296</ele>
        <time>2016-10-04T02:52:45Z</time>
      </trkpt>
      <trkpt lat="46.37759" lon="2.47155">
        <ele>296</ele>
        <time>2016-10-04T02:54:45Z</time>
      </trkpt>
      <trkpt lat="46.37808" lon="2.47214">
        <ele>294</ele>
        <time>2016-10-04T02:56:45Z</time>
      </trkpt>
      <trkpt lat="46.37792" lon="2.472">
        <ele>295</ele>
        <time>2016-10-04T02:58:45Z</time>
      </trkpt>
      <trkpt lat="46.3775" lon="2.47194">
        <ele>297</ele>
        <time>2016-10-04T03:00:45Z</time>
      </trkpt>
      <trkpt lat="46.37682" lon="2.4723">
        <ele>304</ele>
        <time>2016-10-04T03:02:45Z</time>
      </trkpt>
      <trkpt lat="46.37629" lon="2.47291">
        <ele>311</ele>
        <time>2016-10-04T03:04:45Z</time>
      </trkpt>
      <trkpt lat="46.37598" lon="2.47355">
        <ele>318</ele>
        <time>2016-10-04T03:06:45Z</time>
      </trkpt>
      <trkpt lat="46.3755" lon="2.4755">
        <ele>324</ele>
        <time>2016-10-04T03:08:45Z</time>
      </trkpt>
      <trkpt lat="46.37523" lon="2.47598">
        <ele>325</ele>
        <time>2016-10-04T03:10:45Z</time>
      </trkpt>
      <trkpt lat="46.37527" lon="2.47673">
        <ele>323</ele>
        <time>2016-10-04T03:12:45Z</time>
      </trkpt>
      <trkpt lat="46.37543" lon="2.47755">
        <ele>319</ele>
        <time>2016-10-04T03:14:45Z</time>
      </trkpt>
      <trkpt lat="46.37529" lon="2.47793">
        <ele>318</ele>
        <time>2016-10-04T03:16:45Z</time>
      </trkpt>
      <trkpt lat="46.37462" lon="2.47797">
        <ele>324</ele>
        <time>2016-10-04T03:18:45Z</time>
      </trkpt>
      <trkpt lat="46.37471" lon="2.47852">
        <ele>322</ele>
        <time>2016-10-04T03:20:45Z</time>
      </trkpt>
      <trkpt lat="46.37497" lon="2.47861">
        <ele>318</ele>
        <time>2016-10-04T03:22:45Z</time>
      </trkpt>
      <trkpt lat="46.37487" lon="2.47947">
        <ele>318</ele>
        <time>2016-10-04T03:24:45Z</time>
      </trkpt>
      <trkpt lat="46.37454" lon="2.48011">
        <ele>319</ele>
        <time>2016-10-04T03:26:45Z</time>
      </trkpt>
      <trkpt lat="46.37435" lon="2.48049">
        <ele>320</ele>
        <time>2016-10-04T03:28:45Z</time>
      </trkpt>
      <trkpt lat="46.37401" lon="2.48058">
        <ele>322</ele>
        <time>2016-10-04T03:30:45Z</time>
      </trkpt>
      <trkpt lat="46.37419" lon="2.4812">
        <ele>322</ele>
        <time>2016-10-04T03:32:45Z</time>
      </trkpt>
      <trkpt lat="46.37509" lon="2.48485">
        <ele>314</ele>
        <time>2016-10-04T03:34:45Z</time>
      </trkpt>
      <trkpt lat="46.37568" lon="2.48663">
        <ele>312</ele>
        <time>2016-10-04T03:36:45Z</time>
      </trkpt>
      <trkpt lat="46.37646" lon="2.48935">
        <ele>308</ele>
        <time>2016-10-04T03:38:45Z</time>
      </trkpt>
      <trkpt lat="46.37633" lon="2.49043">
        <ele>306</ele>
        <time>2016-10-04T03:40:45Z</time>
      </trkpt>
      <trkpt lat="46.37589" lon="2.49168">
        <ele>306</ele>
        <time>2016-10-04T03:42:45Z</time>
      </trkpt>
      <trkpt lat="46.37649" lon="2.49336">
        <ele>300</ele>
        <time>2016-10-04T03:44:45Z</time>
      </trkpt>
      <trkpt lat="46.3771" lon="2.49457">
        <ele>294</ele>
        <time>2016-10-04T03:46:45Z</time>
      </trkpt>
      <trkpt lat="46.37793" lon="2.49507">
        <ele>288</ele>
        <time>2016-10-04T03:48:45Z</time>
      </trkpt>
      <trkpt lat="46.37811" lon="2.49627">
        <ele>286</ele>
        <time>2016-10-04T03:50:45Z</time>
      </trkpt>
      <trkpt lat="46.37839" lon="2.49846">
        <ele>284</ele>
        <time>2016-10-04T03:52:45Z</time>
      </trkpt>
      <trkpt lat="46.37835" lon="2.49952">
        <ele>282</ele>
        <time>2016-10-04T03:54:45Z</time>
      </trkpt>
      <trkpt lat="46.37867" lon="2.50065">
        <ele>279</ele>
        <time>2016-10-04T03:56:45Z</time>
      </trkpt>
      <trkpt lat="46.37894" lon="2.50196">
        <ele>274</ele>
        <time>2016-10-04T03:58:45Z</time>
      </trkpt>
      <trkpt lat="46.37886" lon="2.50272">
        <ele>273</ele>
        <time>2016-10-04T04:00:45Z</time>
      </trkpt>
      <trkpt lat="46.37913" lon="2.50337">
        <ele>269</ele>
        <time>2016-10-04T04:02:45Z</time>
      </trkpt>
      <trkpt lat="46.37939" lon="2.50423">
        <ele>265</ele>
        <time>2016-10-04T04:04:45Z</time>
      </trkpt>
      <trkpt lat="46.3797" lon="2.5048">
        <ele>262</ele>
        <time>2016-10-04T04:06:45Z</time>
      </trkpt>
      <trkpt lat="46.38005" lon="2.50541">
        <ele>257</ele>
        <time>2016-10-04T04:08:45Z</time>
      </trkpt>
      <trkpt lat="46.37989" lon="2.50596">
        <ele>255</ele>
        <time>2016-10-04T04:10:45Z</time>
      </trkpt>
      <trkpt lat="46.37989" lon="2.50666">
        <ele>254</ele>
        <time>2016-10-04T04:12:45Z</time>
      </trkpt>
      <trkpt lat="46.37989" lon="2.50698">
        <ele>253</ele>
        <time>2016-10-04T04:14:45Z</time>
      </trkpt>
      <trkpt lat="46.37999" lon="2.50778">
        <ele>251</ele>
        <time>2016-10-04T04:16:45Z</time>
      </trkpt>
      <trkpt lat="46.37947" lon="2.50778">
        <ele>253</ele>
        <time>2016-10-04T04:18:45Z</time>
      </trkpt>
      <trkpt lat="46.37883" lon="2.50781">
        <ele>254</ele>
        <time>2016-10-04T04:20:45Z</time>
      </trkpt>
      <trkpt lat="46.3788" lon="2.50995">
        <ele>249</ele>
        <time>2016-10-04T04:22:45Z</time>
      </trkpt>
      <trkpt lat="46.37951" lon="2.5126">
        <ele>243</ele>
        <time>2016-10-04T04:24:45Z</time>
      </trkpt>
      <trkpt lat="46.37873" lon="2.51301">
        <ele>241</ele>
        <time>2016-10-04T04:26:45Z</time>
      </trkpt>
      <trkpt lat="46.37829" lon="2.51338">
        <ele>239</ele>
        <time>2016-10-04T04:28:45Z</time>
      </trkpt>
      <trkpt lat="46.378" lon="2.51401">
        <ele>238</ele>
        <time>2016-10-04T04:30:45Z</time>
      </trkpt>
      <trkpt lat="46.37716" lon="2.5146">
        <ele>242</ele>
        <time>2016-10-04T04:32:45Z</time>
      </trkpt>
      <trkpt lat="46.37627" lon="2.51495">
        <ele>244</ele>
        <time>2016-10-04T04:34:45Z</time>
      </trkpt>
      <trkpt lat="46.37628" lon="2.51521">
        <ele>243</ele>
        <time>2016-10-04T04:36:45Z</time>
      </trkpt>
      <trkpt lat="46.37495" lon="2.51715">
        <ele>243</ele>
        <time>2016-10-04T04:38:45Z</time>
      </trkpt>
      <trkpt lat="46.37442" lon="2.51813">
        <ele>244</ele>
        <time>2016-10-04T04:40:45Z</time>
      </trkpt>
      <trkpt lat="46.37369" lon="2.51804">
        <ele>248</ele>
        <time>2016-10-04T04:42:45Z</time>
      </trkpt>
      <trkpt lat="46.37335" lon="2.51836">
        <ele>249</ele>
        <time>2016-10-04T04:44:45Z</time>
      </trkpt>
      <trkpt lat="46.37321" lon="2.51863">
        <ele>248</ele>
        <time>2016-10-04T04:46:45Z</time>
      </trkpt>
      <trkpt lat="46.3733" lon="2.51958">
        <ele>245</ele>
        <time>2016-10-04T04:48:45Z</time>
      </trkpt>
      <trkpt lat="46.37383" lon="2.52031">
        <ele>242</ele>
        <time>2016-10-04T04:50:45Z</time>
      </trkpt>
      <trkpt lat="46.37218" lon="2.52144">
        <ele>239</ele>
        <time>2016-10-04T04:52:45Z</time>
      </trkpt>
      <trkpt lat="46.3717" lon="2.5217">
        <ele>237</ele>
        <time>2016-10-04T04:54:45Z</time>
      </trkpt>
      <trkpt lat="46.371" lon="2.52358">
        <ele>231</ele>
        <time>2016-10-04T04:56:45Z</time>
      </trkpt>
      <trkpt lat="46.37052" lon="2.52505">
        <ele>224</ele>
        <time>2016-10-04T04:58:45Z</time>
      </trkpt>
      <trkpt lat="46.37014" lon="2.52536">
        <ele>222</ele>
        <time>2016-10-04T05:00:45Z</time>
      </trkpt>
      <trkpt lat="46.36977" lon="2.52447">
        <ele>222</ele>
        <time>2016-10-04T05:02:45Z</time>
      </trkpt>
      <trkpt lat="46.36939" lon="2.5249">
        <ele>223</ele>
        <time>2016-10-04T05:04:45Z</time>
      </trkpt>
      <trkpt lat="46.36938" lon="2.52563">
        <ele>223</ele>
        <time>2016-10-04T05:06:45Z</time>
      </trkpt>
      <trkpt lat="46.36836" lon="2.5264">
        <ele>230</ele>
        <time>2016-10-04T05:08:45Z</time>
      </trkpt>
      <trkpt lat="46.36707" lon="2.52708">
        <ele>236</ele>
        <time>2016-10-04T05:10:45Z</time>
      </trkpt>
      <trkpt lat="46.36629" lon="2.52551">
        <ele>237</ele>
        <time>2016-10-04T05:12:45Z</time>
      </trkpt>
      <trkpt lat="46.36445" lon="2.5218">
        <ele>251</ele>
        <time>2016-10-04T05:14:45Z</time>
      </trkpt>
      <trkpt lat="46.36322" lon="2.52294">
        <ele>246</ele>
        <time>2016-10-04T05:16:45Z</time>
      </trkpt>
      <trkpt lat="46.36316" lon="2.52303">
        <ele>246</ele>
        <time>2016-10-04T05:18:45Z</time>
      </trkpt>
      <trkpt lat="46.36264" lon="2.52387">
        <ele>247</ele>
        <time>2016-10-04T05:20:45Z</time>
      </trkpt>
      <trkpt lat="46.36159" lon="2.52582">
        <ele>248</ele>
        <time>2016-10-04T05:22:45Z</time>
      </trkpt>
      <trkpt lat="46.36094" lon="2.52729">
        <ele>246</ele>
        <time>2016-10-04T05:24:45Z</time>
      </trkpt>
      <trkpt lat="46.36064" lon="2.52845">
        <ele>251</ele>
        <time>2016-10-04T05:26:45Z</time>
      </trkpt>
      <trkpt lat="46.36085" lon="2.52977">
        <ele>249</ele>
        <time>2016-10-04T05:28:45Z</time>
      </trkpt>
      <trkpt lat="46.36054" lon="2.52954">
        <ele>250</ele>
        <time>2016-10-04T05:30:45Z</time>
      </trkpt>
      <trkpt lat="46.35994" lon="2.53106">
        <ele>247</ele>
        <time>2016-10-04T05:32:45Z</time>
      </trkpt>
      <trkpt lat="46.35946" lon="2.53336">
        <ele>245</ele>
        <time>2016-10-04T05:34:45Z</time>
      </trkpt>
      <trkpt lat="46.35986" lon="2.53404">
        <ele>243</ele>
        <time>2016-10-04T05:36:45Z</time>
      </trkpt>
      <trkpt lat="46.35877" lon="2.53559">
        <ele>242</ele>
        <time>2016-10-04T05:38:45Z</time>
      </trkpt>
      <trkpt lat="46.35823" lon="2.53595">
        <ele>241</ele>
        <time>2016-10-04T05:40:45Z</time>
      </trkpt>
      <trkpt lat="46.35781" lon="2.53653">
        <ele>239</ele>
        <time>2016-10-04T05:42:45Z</time>
      </trkpt>
      <trkpt lat="46.3573" lon="2.53708">
        <ele>240</ele>
        <time>2016-10-04T05:44:45Z</time>
      </trkpt>
      <trkpt lat="46.35786" lon="2.53857">
        <ele>240</ele>
        <time>2016-10-04T05:46:45Z</time>
      </trkpt>
      <trkpt lat="46.35749" lon="2.53978">
        <ele>240</ele>
        <time>2016-10-04T05:48:45Z</time>
      </trkpt>
      <trkpt lat="46.35707" lon="2.54043">
        <ele>240</ele>
        <time>2016-10-04T05:50:45Z</time>
      </trkpt>
      <trkpt lat="46.35697" lon="2.54111">
        <ele>240</ele>
        <time>2016-10-04T05:52:45Z</time>
      </trkpt>
      <trkpt lat="46.3569" lon="2.54213">
        <ele>239</ele>
        <time>2016-10-04T05:54:45Z</time>
      </trkpt>
      <trkpt lat="46.35621" lon="2.54425">
        <ele>244</ele>
        <time>2016-10-04T05:56:45Z</time>
      </trkpt>
      <trkpt lat="46.35736" lon="2.54505">
        <ele>236</ele>
        <time>2016-10-04T05:58:45Z</time>
      </trkpt>
      <trkpt lat="46.35716" lon="2.54779">
        <ele>233</ele>
        <time>2016-10-04T06:00:45Z</time>
      </trkpt>
      <trkpt lat="46.35691" lon="2.55088">
        <ele>236</ele>
        <time>2016-10-04T06:02:45Z</time>
      </trkpt>
      <trkpt lat="46.35631" lon="2.55296">
        <ele>241</ele>
        <time>2016-10-04T06:04:45Z</time>
      </trkpt>
      <trkpt lat="46.35556" lon="2.55452">
        <ele>248</ele>
        <time>2016-10-04T06:06:45Z</time>
      </trkpt>
      <trkpt lat="46.35487" lon="2.55615">
        <ele>248</ele>
        <time>2016-10-04T06:08:45Z</time>
      </trkpt>
      <trkpt lat="46.35411" lon="2.55713">
        <ele>241</ele>
        <time>2016-10-04T06:10:45Z</time>
      </trkpt>
      <trkpt lat="46.35369" lon="2.55751">
        <ele>237</ele>
        <time>2016-10-04T06:12:45Z</time>
      </trkpt>
      <trkpt lat="46.3541" lon="2.55788">
        <ele>237</ele>
        <time>2016-10-04T06:14:45Z</time>
      </trkpt>
      <trkpt lat="46.35469" lon="2.55772">
        <ele>241</ele>
        <time>2016-10-04T06:16:45Z</time>
      </trkpt>
      <trkpt lat="46.35724" lon="2.55931">
        <ele>247</ele>
        <time>2016-10-04T06:18:45Z</time>
      </trkpt>
      <trkpt lat="46.35716" lon="2.56014">
        <ele>245</ele>
        <time>2016-10-04T06:20:45Z</time>
      </trkpt>
      <trkpt lat="46.35824" lon="2.56005">
        <ele>247</ele>
        <time>2016-10-04T06:22:45Z</time>
      </trkpt>
      <trkpt lat="46.35962" lon="2.56154">
        <ele>239</ele>
        <time>2016-10-04T06:24:45Z</time>
      </trkpt>
      <trkpt lat="46.36148" lon="2.56359">
        <ele>235</ele>
        <time>2016-10-04T06:26:45Z</time>
      </trkpt>
      <trkpt lat="46.36066" lon="2.56583">
        <ele>233</ele>
        <time>2016-10-04T06:28:45Z</time>
      </trkpt>
      <trkpt lat="46.35993" lon="2.56829">
        <ele>228</ele>
        <time>2016-10-04T06:30:45Z</time>
      </trkpt>
      <trkpt lat="46.3596" lon="2.56927">
        <ele>229</ele>
        <time>2016-10-04T06:32:45Z</time>
      </trkpt>
      <trkpt lat="46.35934" lon="2.57035">
        <ele>228</ele>
        <time>2016-10-04T06:34:45Z</time>
      </trkpt>
      <trkpt lat="46.35946" lon="2.57276">
        <ele>224</ele>
        <time>2016-10-04T06:36:45Z</time>
      </trkpt>
      <trkpt lat="46.35997" lon="2.57358">
        <ele>225</ele>
        <time>2016-10-04T06:38:45Z</time>
      </trkpt>
      <trkpt lat="46.36101" lon="2.57407">
        <ele>229</ele>
        <time>2016-10-04T06:40:45Z</time>
      </trkpt>
      <trkpt lat="46.36215" lon="2.5745">
        <ele>229</ele>
        <time>2016-10-04T06:42:45Z</time>
      </trkpt>
      <trkpt lat="46.36045" lon="2.57612">
        <ele>221</ele>
        <time>2016-10-04T06:44:45Z</time>
      </trkpt>
      <trkpt lat="46.35862" lon="2.57721">
        <ele>224</ele>
        <time>2016-10-04T06:46:45Z</time>
      </trkpt>
      <trkpt lat="46.35925" lon="2.57893">
        <ele>225</ele>
        <time>2016-10-04T06:48:45Z</time>
      </trkpt>
      <trkpt lat="46.36062" lon="2.58145">
        <ele>216</ele>
        <time>2016-10-04T06:50:45Z</time>
      </trkpt>
      <trkpt lat="46.36119" lon="2.58127">
        <ele>214</ele>
        <time>2016-10-04T06:52:45Z</time>
      </trkpt>
      <trkpt lat="46.36144" lon="2.58138">
        <ele>212</ele>
        <time>2016-10-04T06:54:45Z</time>
      </trkpt>
      <trkpt lat="46.36422" lon="2.57855">
        <ele>227</ele>
        <time>2016-10-04T06:56:45Z</time>
      </trkpt>
      <trkpt lat="46.36496" lon="2.58027">
        <ele>225</ele>
        <time>2016-10-04T06:58:45Z</time>
      </trkpt>
      <trkpt lat="46.36532" lon="2.5807">
        <ele>223</ele>
        <time>2016-10-04T07:00:45Z</time>
      </trkpt>
      <trkpt lat="46.36561" lon="2.58">
        <ele>223</ele>
        <time>2016-10-04T07:02:45Z</time>
      </trkpt>
    </trkseg>
  </trk>
</gpx>